createdAt,value
2023-03-01T00:01:43.792Z,37.70
2023-03-01T00:04:11.996Z,38.10
2023-03-01T00:06:39.970Z,40.40
2023-03-01T00:09:07.898Z,42.20
2023-03-01T00:11:35.849Z,43.50
2023-03-01T00:14:10.800Z,42.20
2023-03-01T00:16:43.897Z,41.60
2023-03-01T00:19:15.526Z,38.70
2023-03-01T00:21:44.506Z,46.50
2023-03-01T00:24:12.576Z,43.50
2023-03-01T00:26:40.731Z,29.80
2023-03-01T00:29:09.133Z,34.40
2023-03-01T00:31:37.149Z,31.80
2023-03-01T00:34:07.515Z,32.40
2023-03-01T00:36:37.431Z,32.90
2023-03-01T00:39:09.310Z,35.60
2023-03-01T00:41:37.251Z,29.50
2023-03-01T00:44:05.322Z,25.60
2023-03-01T00:46:33.881Z,29.60
2023-03-01T00:49:05.714Z,27.90
2023-03-01T00:51:34.556Z,25.40
2023-03-01T00:54:03.571Z,31.40
2023-03-01T00:56:32.698Z,32.20
2023-03-01T00:59:02.190Z,37.40
2023-03-01T01:01:32.132Z,28.90
2023-03-01T01:04:06.884Z,32.30
2023-03-01T01:06:40.201Z,28.90
2023-03-01T01:09:08.476Z,27.50
2023-03-01T01:11:39.669Z,27.80
2023-03-01T01:14:07.767Z,27.10
2023-03-01T01:16:36.025Z,24.40
2023-03-01T01:19:04.134Z,26.10
2023-03-01T01:21:32.521Z,25.70
2023-03-01T01:24:01.178Z,27.40
2023-03-01T01:26:32.930Z,30.90
2023-03-01T01:29:03.225Z,29.70
2023-03-01T01:31:33.351Z,24.70
2023-03-01T01:34:03.783Z,31.10
2023-03-01T01:36:33.436Z,27.30
2023-03-01T01:39:01.639Z,28.90
2023-03-01T01:41:30.562Z,28.60
2023-03-01T01:44:26.157Z,30.70
2023-03-01T01:46:54.028Z,31.00
2023-03-01T01:49:25.698Z,30.90
2023-03-01T01:52:03.217Z,30.20
2023-03-01T01:54:57.300Z,35.90
2023-03-01T01:57:30.652Z,31.10
2023-03-01T02:00:01.588Z,31.50
2023-03-01T02:02:30.153Z,32.20
2023-03-01T02:05:11.372Z,28.00
2023-03-01T02:07:40.886Z,32.10
2023-03-01T02:10:09.645Z,29.90
2023-03-01T02:12:39.479Z,30.40
2023-03-01T02:15:07.967Z,31.80
2023-03-01T02:17:37.205Z,30.30
2023-03-01T02:20:40.862Z,32.70
2023-03-01T02:23:09.393Z,30.60
2023-03-01T02:25:50.715Z,29.70
2023-03-01T02:28:18.712Z,25.50
2023-03-01T02:31:09.528Z,24.50
2023-03-01T02:33:40.561Z,24.80
2023-03-01T02:36:18.195Z,24.50
2023-03-01T02:38:47.059Z,25.30
2023-03-01T02:41:18.537Z,25.30
2023-03-01T02:43:46.726Z,16.90
2023-03-01T02:46:24.428Z,19.80
2023-03-01T02:48:55.389Z,20.60
2023-03-01T02:51:45.388Z,25.60
2023-03-01T02:54:29.778Z,23.20
2023-03-01T02:57:00.890Z,18.50
2023-03-01T02:59:40.451Z,18.40
2023-03-01T03:02:45.284Z,18.10
2023-03-01T03:05:30.186Z,16.60
2023-03-01T03:08:02.247Z,18.10
2023-03-01T03:10:35.994Z,18.60
2023-03-01T03:13:10.491Z,15.00
2023-03-01T03:15:40.176Z,16.70
2023-03-01T03:18:14.563Z,18.80
2023-03-01T03:20:44.045Z,15.90
2023-03-01T03:23:13.312Z,13.60
2023-03-01T03:25:41.270Z,17.20
2023-03-01T03:28:12.210Z,18.70
2023-03-01T03:30:42.233Z,18.00
2023-03-01T03:33:13.607Z,16.80
2023-03-01T03:35:48.218Z,18.80
2023-03-01T03:38:20.239Z,16.70
2023-03-01T03:40:51.266Z,16.50
2023-03-01T03:43:22.023Z,14.00
2023-03-01T03:45:52.296Z,13.50
2023-03-01T03:48:21.213Z,14.40
2023-03-01T03:50:51.757Z,15.70
2023-03-01T03:53:20.740Z,15.10
2023-03-01T03:55:52.693Z,15.00
2023-03-01T03:58:23.149Z,17.20
2023-03-01T04:00:53.941Z,17.70
2023-03-01T04:03:22.198Z,15.70
2023-03-01T04:05:53.996Z,18.90
2023-03-01T04:08:24.030Z,12.70
2023-03-01T04:10:58.530Z,13.30
2023-03-01T04:13:26.682Z,10.40
2023-03-01T04:15:55.776Z,10.70
2023-03-01T04:18:26.289Z,11.40
2023-03-01T04:20:56.596Z,10.70
2023-03-01T04:23:25.047Z,12.10
2023-03-01T04:25:58.219Z,12.20
2023-03-01T04:28:30.084Z,11.50
2023-03-01T04:30:59.799Z,11.00
2023-03-01T04:33:27.885Z,13.60
2023-03-01T04:35:55.973Z,12.90
2023-03-01T04:38:23.991Z,13.70
2023-03-01T04:40:51.976Z,17.70
2023-03-01T04:43:20.027Z,20.20
2023-03-01T04:45:48.057Z,19.80
2023-03-01T04:48:16.152Z,19.30
2023-03-01T04:50:44.200Z,21.70
2023-03-01T04:53:12.245Z,23.20
2023-03-01T04:55:40.233Z,19.60
2023-03-01T04:58:08.318Z,20.30
2023-03-01T05:00:36.172Z,23.90
2023-03-01T05:03:04.273Z,24.20
2023-03-01T05:05:39.945Z,22.20
2023-03-01T05:08:09.523Z,28.40
2023-03-01T05:10:38.802Z,26.70
2023-03-01T05:13:07.701Z,23.70
2023-03-01T05:15:37.628Z,26.30
2023-03-01T05:18:12.434Z,31.00
2023-03-01T05:20:40.638Z,31.50
2023-03-01T05:23:08.681Z,26.50
2023-03-01T05:25:41.292Z,32.10
2023-03-01T05:28:13.224Z,30.80
2023-03-01T05:30:41.744Z,31.00
2023-03-01T05:33:16.208Z,32.20
2023-03-01T05:35:45.973Z,32.80
2023-03-01T05:38:14.431Z,34.20
2023-03-01T05:40:47.342Z,31.10
2023-03-01T05:43:17.086Z,38.30
2023-03-01T05:45:45.415Z,30.80
2023-03-01T05:48:14.719Z,32.80
2023-03-01T05:50:44.860Z,28.40
2023-03-01T05:53:16.767Z,33.80
2023-03-01T05:55:45.418Z,27.40
2023-03-01T05:58:16.730Z,32.90
2023-03-01T06:00:46.836Z,33.70
2023-03-01T06:03:16.854Z,33.40
2023-03-01T06:05:45.980Z,38.70
2023-03-01T06:08:14.904Z,38.40
2023-03-01T06:10:42.840Z,30.90
2023-03-01T06:13:10.753Z,33.90
2023-03-01T06:15:39.020Z,40.60
2023-03-01T06:18:06.988Z,30.00
2023-03-01T06:20:34.930Z,33.40
2023-03-01T06:23:02.913Z,32.90
2023-03-01T06:25:30.843Z,30.90
2023-03-01T06:27:59.250Z,32.90
2023-03-01T06:30:28.148Z,35.50
2023-03-01T06:33:01.855Z,32.90
2023-03-01T06:35:31.191Z,32.30
2023-03-01T06:38:01.827Z,36.50
2023-03-01T06:40:32.298Z,42.80
2023-03-01T06:43:00.661Z,41.70
2023-03-01T06:45:28.776Z,45.50
2023-03-01T06:48:07.089Z,44.90
2023-03-01T06:50:36.346Z,49.00
2023-03-01T06:53:04.788Z,39.10
2023-03-01T06:55:33.300Z,45.00
2023-03-01T06:58:02.772Z,59.30
2023-03-01T07:00:31.015Z,47.70
2023-03-01T07:03:03.549Z,48.90
2023-03-01T07:05:31.959Z,52.70
2023-03-01T07:08:00.109Z,53.60
2023-03-01T07:10:28.473Z,46.90
2023-03-01T07:12:59.987Z,48.00
2023-03-01T07:15:29.839Z,46.00
2023-03-01T07:17:57.839Z,43.30
2023-03-01T07:20:26.724Z,39.60
2023-03-01T07:22:56.119Z,37.00
2023-03-01T07:25:24.297Z,38.80
2023-03-01T07:27:53.551Z,32.80
2023-03-01T07:30:22.451Z,31.70
2023-03-01T07:32:50.662Z,32.10
2023-03-01T07:35:18.874Z,31.90
2023-03-01T07:37:46.824Z,31.60
2023-03-01T07:40:14.781Z,30.70
2023-03-01T07:42:42.734Z,30.40
2023-03-01T07:45:11.351Z,33.80
2023-03-01T07:47:39.236Z,31.30
2023-03-01T07:50:07.565Z,34.30
2023-03-01T07:52:35.447Z,25.40
2023-03-01T07:55:03.376Z,24.10
2023-03-01T07:57:31.256Z,23.90
2023-03-01T07:59:59.133Z,23.70
2023-03-01T08:02:27.074Z,22.10
2023-03-01T08:04:55.190Z,21.90
2023-03-01T08:07:23.017Z,15.90
2023-03-01T08:09:50.920Z,17.30
2023-03-01T08:12:18.800Z,15.80
2023-03-01T08:14:46.686Z,20.50
2023-03-01T08:17:15.674Z,20.40
2023-03-01T08:19:44.172Z,19.40
2023-03-01T08:22:12.531Z,22.00
2023-03-01T08:24:40.592Z,22.70
2023-03-01T08:27:08.590Z,21.80
2023-03-01T08:29:36.464Z,25.40
2023-03-01T08:32:04.576Z,24.00
2023-03-01T08:34:32.962Z,28.10
2023-03-01T08:37:00.874Z,24.20
2023-03-01T08:39:29.197Z,24.90
2023-03-01T08:41:58.133Z,23.70
2023-03-01T08:44:26.165Z,25.30
2023-03-01T08:46:55.513Z,21.50
2023-03-01T08:49:23.646Z,22.00
2023-03-01T08:51:51.580Z,20.70
2023-03-01T08:54:22.295Z,20.90
2023-03-01T08:56:50.839Z,22.40
2023-03-01T08:59:19.223Z,22.20
2023-03-01T09:01:47.160Z,20.20
2023-03-01T09:04:16.232Z,20.10
2023-03-01T09:06:44.678Z,16.40
2023-03-01T09:09:18.032Z,17.70
2023-03-01T09:11:47.392Z,19.60
2023-03-01T09:14:15.639Z,19.30
2023-03-01T09:16:43.840Z,19.70
2023-03-01T09:19:12.307Z,20.30
2023-03-01T09:21:41.238Z,20.80
2023-03-01T09:24:15.204Z,24.50
2023-03-01T09:26:44.071Z,22.10
2023-03-01T09:29:12.015Z,23.40
2023-03-01T09:31:40.148Z,25.80
2023-03-01T09:34:09.040Z,24.80
2023-03-01T09:36:37.192Z,25.00
2023-03-01T09:39:07.035Z,25.50
2023-03-01T09:41:35.003Z,27.10
2023-03-01T09:44:37.274Z,24.80
2023-03-01T09:47:06.866Z,37.60
2023-03-01T09:49:40.717Z,28.80
2023-03-01T09:52:30.805Z,29.50
2023-03-01T09:55:00.717Z,30.30
2023-03-01T09:57:47.394Z,28.20
2023-03-01T10:00:24.972Z,29.90
2023-03-01T10:03:18.703Z,28.10
2023-03-01T10:05:55.209Z,27.60
2023-03-01T10:08:55.374Z,22.60
2023-03-01T10:11:38.088Z,26.00
2023-03-01T10:14:25.176Z,15.10
2023-03-01T10:16:59.974Z,19.30
2023-03-01T10:19:40.075Z,21.70
2023-03-01T10:22:24.094Z,19.10
2023-03-01T10:24:53.977Z,15.70
2023-03-01T10:27:55.513Z,16.60
2023-03-01T10:30:44.993Z,20.70
2023-03-01T10:33:24.466Z,19.70
2023-03-01T10:35:52.573Z,20.00
2023-03-01T10:38:23.662Z,22.90
2023-03-01T10:40:53.291Z,25.40
2023-03-01T10:43:22.488Z,31.90
2023-03-01T10:45:50.642Z,20.40
2023-03-01T10:48:24.697Z,16.20
2023-03-01T10:50:58.519Z,20.80
2023-03-01T10:53:32.368Z,20.50
2023-03-01T10:56:16.737Z,22.60
2023-03-01T10:59:00.985Z,15.10
2023-03-01T11:01:33.781Z,16.60
2023-03-01T11:04:08.355Z,15.80
2023-03-01T11:06:38.771Z,12.80
2023-03-01T11:09:21.607Z,19.40
2023-03-01T11:11:58.030Z,15.10
2023-03-01T11:14:33.451Z,15.70
2023-03-01T11:17:13.453Z,17.80
2023-03-01T11:19:43.656Z,13.80
2023-03-01T11:22:31.316Z,16.30
2023-03-01T11:25:10.090Z,14.10
2023-03-01T11:27:44.440Z,11.60
2023-03-01T11:30:27.746Z,11.60
2023-03-01T11:33:23.711Z,14.70
2023-03-01T11:36:01.847Z,12.40
2023-03-01T11:38:33.498Z,9.10
2023-03-01T11:41:06.588Z,8.60
2023-03-01T11:43:55.253Z,14.80
2023-03-01T11:46:52.601Z,13.40
2023-03-01T11:49:32.796Z,41.70
2023-03-01T11:52:24.673Z,16.50
2023-03-01T11:55:01.519Z,16.50
2023-03-01T11:58:08.302Z,13.00
2023-03-01T12:01:09.134Z,17.00
2023-03-01T12:04:07.834Z,16.10
2023-03-01T12:06:56.686Z,19.30
2023-03-01T12:09:53.763Z,18.50
2023-03-01T12:12:52.014Z,17.00
2023-03-01T12:15:40.269Z,19.30
2023-03-01T12:18:20.507Z,16.50
2023-03-01T12:21:05.002Z,16.80
2023-03-01T12:23:53.933Z,14.90
2023-03-01T12:26:35.035Z,15.20
2023-03-01T12:29:17.663Z,18.30
2023-03-01T12:31:45.658Z,21.80
2023-03-01T12:34:25.565Z,14.00
2023-03-01T12:37:17.882Z,17.00
2023-03-01T12:40:04.662Z,17.10
2023-03-01T12:42:53.020Z,14.00
2023-03-01T12:45:40.518Z,15.00
2023-03-01T12:48:08.376Z,18.50
2023-03-01T12:50:56.548Z,17.90
2023-03-01T12:53:27.849Z,14.30
2023-03-01T12:56:26.340Z,13.70
2023-03-01T12:59:03.889Z,15.80
2023-03-01T13:01:37.542Z,11.80
2023-03-01T13:04:34.293Z,14.60
2023-03-01T13:07:29.432Z,10.90
2023-03-01T13:10:07.237Z,10.70
2023-03-01T13:12:50.570Z,14.40
2023-03-01T13:15:24.766Z,12.80
2023-03-01T13:17:58.818Z,11.40
2023-03-01T13:20:49.249Z,10.80
2023-03-01T13:23:20.170Z,9.50
2023-03-01T13:26:07.558Z,8.70
2023-03-01T13:28:35.659Z,9.30
2023-03-01T13:31:06.609Z,8.50
2023-03-01T13:33:48.311Z,11.50
2023-03-01T13:36:28.538Z,10.20
2023-03-01T13:38:56.691Z,10.30
2023-03-01T13:41:39.570Z,11.50
2023-03-01T13:44:27.344Z,16.60
2023-03-01T13:47:06.133Z,14.40
2023-03-01T13:50:00.188Z,10.70
2023-03-01T13:52:55.054Z,9.10
2023-03-01T13:55:33.582Z,12.20
2023-03-01T13:58:05.427Z,10.30
2023-03-01T14:00:33.508Z,10.70
2023-03-01T14:03:14.932Z,9.30
2023-03-01T14:06:11.524Z,10.80
2023-03-01T14:08:42.137Z,11.70
2023-03-01T14:11:26.329Z,12.10
2023-03-01T14:13:57.277Z,11.20
2023-03-01T14:16:34.730Z,12.60
2023-03-01T14:19:08.532Z,13.70
2023-03-01T14:21:37.942Z,14.70
2023-03-01T14:24:06.356Z,14.90
2023-03-01T14:26:37.657Z,15.90
2023-03-01T14:29:05.669Z,8.60
2023-03-01T14:31:46.992Z,9.90
2023-03-01T14:34:25.848Z,13.50
2023-03-01T14:36:53.870Z,15.90
2023-03-01T14:39:27.447Z,19.90
2023-03-01T14:41:57.415Z,11.60
2023-03-01T14:44:26.928Z,18.60
2023-03-01T14:46:58.237Z,15.80
2023-03-01T14:49:30.442Z,15.90
2023-03-01T14:52:06.478Z,14.60
2023-03-01T14:54:45.427Z,11.40
2023-03-01T14:57:17.592Z,14.90
2023-03-01T14:59:46.762Z,12.80
2023-03-01T15:02:20.847Z,21.90
2023-03-01T15:04:52.379Z,13.70
2023-03-01T15:07:20.892Z,12.70
2023-03-01T15:09:49.053Z,17.30
2023-03-01T15:12:29.281Z,14.30
2023-03-01T15:15:04.275Z,12.30
2023-03-01T15:17:40.356Z,21.60
2023-03-01T15:20:18.460Z,18.60
2023-03-01T15:22:49.780Z,15.10
2023-03-01T15:25:20.624Z,20.40
2023-03-01T15:27:50.978Z,15.40
2023-03-01T15:30:38.537Z,19.20
2023-03-01T15:33:27.969Z,15.20
2023-03-01T15:36:02.369Z,12.50
2023-03-01T15:38:57.787Z,20.60
2023-03-01T15:41:34.284Z,16.80
2023-03-01T15:44:27.928Z,14.70
2023-03-01T15:46:58.408Z,13.60
2023-03-01T15:49:54.402Z,21.30
2023-03-01T15:52:30.250Z,17.00
2023-03-01T15:55:01.462Z,16.90
2023-03-01T15:57:29.717Z,16.80
2023-03-01T15:59:57.880Z,16.60
2023-03-01T16:02:26.003Z,18.40
2023-03-01T16:04:54.876Z,15.20
2023-03-01T16:07:22.863Z,18.30
2023-03-01T16:09:50.806Z,19.20
2023-03-01T16:12:21.541Z,20.80
2023-03-01T16:14:49.719Z,19.80
2023-03-01T16:17:17.769Z,23.30
2023-03-01T16:19:45.706Z,28.00
2023-03-01T16:22:13.648Z,21.80
2023-03-01T16:24:42.230Z,20.00
2023-03-01T16:27:10.249Z,21.50
2023-03-01T16:29:38.262Z,22.60
2023-03-01T16:32:06.285Z,25.20
2023-03-01T16:34:34.803Z,31.10
2023-03-01T16:37:02.724Z,28.00
2023-03-01T16:39:30.754Z,26.50
2023-03-01T16:42:01.401Z,31.70
2023-03-01T16:44:29.318Z,35.00
2023-03-01T16:46:57.363Z,39.20
2023-03-01T16:49:25.282Z,34.30
2023-03-01T16:51:55.292Z,32.60
2023-03-01T16:54:23.191Z,26.00
2023-03-01T16:56:51.473Z,35.60
2023-03-01T16:59:20.625Z,36.70
2023-03-01T17:01:48.653Z,33.60
2023-03-01T17:04:16.998Z,33.40
2023-03-01T17:06:47.763Z,28.90
2023-03-01T17:09:17.817Z,28.60
2023-03-01T17:11:45.720Z,28.20
2023-03-01T17:14:13.712Z,22.90
2023-03-01T17:16:41.752Z,42.60
2023-03-01T17:19:10.190Z,27.70
2023-03-01T17:21:38.281Z,23.90
2023-03-01T17:24:06.356Z,24.10
2023-03-01T17:26:34.339Z,22.90
2023-03-01T17:29:03.969Z,28.20
2023-03-01T17:31:33.790Z,20.80
2023-03-01T17:34:02.236Z,18.10
2023-03-01T17:36:30.432Z,25.30
2023-03-01T17:38:58.703Z,28.70
2023-03-01T17:41:26.615Z,23.60
2023-03-01T17:43:54.599Z,22.30
2023-03-01T17:46:22.565Z,22.00
2023-03-01T17:48:50.946Z,24.10
2023-03-01T17:51:19.094Z,18.60
2023-03-01T17:53:47.028Z,22.60
2023-03-01T17:56:16.218Z,22.70
2023-03-01T17:58:44.447Z,24.50
2023-03-01T18:01:20.922Z,23.90
2023-03-01T18:03:51.514Z,23.20
2023-03-01T18:06:27.559Z,25.20
2023-03-01T18:08:56.718Z,20.30
2023-03-01T18:11:25.857Z,20.40
2023-03-01T18:13:55.387Z,22.30
2023-03-01T18:16:23.572Z,21.20
2023-03-01T18:18:56.449Z,20.90
2023-03-01T18:21:25.000Z,21.00
2023-03-01T18:23:55.904Z,14.00
2023-03-01T18:26:25.347Z,22.00
2023-03-01T18:28:54.028Z,22.30
2023-03-01T18:31:22.753Z,19.70
2023-03-01T18:33:55.299Z,18.00
2023-03-01T18:36:29.631Z,21.40
2023-03-01T18:39:01.362Z,18.60
2023-03-01T18:41:29.835Z,19.50
2023-03-01T18:43:58.576Z,25.10
2023-03-01T18:46:26.818Z,23.00
2023-03-01T18:48:55.558Z,15.90
2023-03-01T18:51:27.034Z,24.20
2023-03-01T18:53:56.442Z,20.70
2023-03-01T18:56:25.489Z,24.70
2023-03-01T18:58:53.436Z,25.40
2023-03-01T19:01:26.486Z,41.20
2023-03-01T19:03:56.666Z,25.50
2023-03-01T19:06:29.204Z,26.50
2023-03-01T19:08:57.984Z,21.10
2023-03-01T19:11:31.334Z,24.20
2023-03-01T19:14:01.162Z,18.50
2023-03-01T19:16:32.069Z,22.70
2023-03-01T19:19:02.391Z,20.30
2023-03-01T19:21:32.176Z,24.00
2023-03-01T19:24:02.608Z,22.40
2023-03-01T19:26:31.884Z,22.90
2023-03-01T19:29:00.695Z,34.70
2023-03-01T19:31:31.025Z,36.50
2023-03-01T19:34:10.535Z,40.20
2023-03-01T19:36:42.832Z,49.00
2023-03-01T19:39:13.609Z,34.10
2023-03-01T19:41:43.590Z,39.70
2023-03-01T19:44:12.497Z,41.50
2023-03-01T19:46:40.788Z,30.60
2023-03-01T19:49:09.339Z,34.00
2023-03-01T19:51:39.382Z,34.50
2023-03-01T19:54:09.832Z,28.60
2023-03-01T19:56:38.604Z,27.70
2023-03-01T19:59:07.346Z,32.30
2023-03-01T20:01:35.812Z,27.80
2023-03-01T20:04:04.858Z,29.20
2023-03-01T20:06:33.192Z,33.10
2023-03-01T20:09:19.095Z,32.60
2023-03-01T20:11:49.035Z,32.20
2023-03-01T20:14:17.692Z,30.00
2023-03-01T20:16:45.755Z,25.70
2023-03-01T20:19:13.866Z,24.50
2023-03-01T20:21:41.987Z,24.10
2023-03-01T20:24:10.138Z,26.60
2023-03-01T20:26:38.393Z,23.40
2023-03-01T20:29:08.537Z,22.60
2023-03-01T20:31:37.163Z,22.60
2023-03-01T20:34:05.418Z,21.00
2023-03-01T20:36:50.146Z,24.20
2023-03-01T20:39:18.592Z,27.40
2023-03-01T20:41:46.519Z,25.50
2023-03-01T20:44:14.478Z,25.50
2023-03-01T20:46:42.676Z,31.70
2023-03-01T20:49:11.152Z,28.60
2023-03-01T20:51:39.236Z,30.50
2023-03-01T20:54:07.396Z,26.20
2023-03-01T20:56:35.587Z,26.40
2023-03-01T20:59:05.432Z,29.20
2023-03-01T21:01:33.377Z,28.10
2023-03-01T21:04:02.307Z,29.20
2023-03-01T21:06:30.461Z,26.60
2023-03-01T21:08:58.495Z,24.20
2023-03-01T21:11:26.551Z,22.30
2023-03-01T21:13:55.540Z,24.20
2023-03-01T21:16:24.495Z,23.20
2023-03-01T21:18:52.533Z,17.00
2023-03-01T21:21:22.772Z,13.80
2023-03-01T21:23:50.821Z,13.50
2023-03-01T21:26:24.920Z,25.60
2023-03-01T21:29:01.510Z,31.80
2023-03-01T21:34:04.297Z,29.40
2023-03-01T21:36:32.857Z,29.30
2023-03-01T21:39:02.326Z,26.30
2023-03-01T21:41:33.062Z,28.70
2023-03-01T21:44:06.774Z,33.90
2023-03-01T21:46:38.255Z,31.50
2023-03-01T21:49:08.795Z,33.20
2023-03-01T21:51:37.511Z,37.40
2023-03-01T21:54:17.186Z,32.20
2023-03-01T21:57:14.683Z,29.70
2023-03-01T21:59:42.756Z,24.40
2023-03-01T22:02:12.504Z,17.30
2023-03-01T22:04:41.443Z,15.70
2023-03-01T22:07:09.345Z,19.90
2023-03-01T22:09:38.962Z,17.10
2023-03-01T22:12:07.086Z,16.80
2023-03-01T22:14:35.134Z,17.40
2023-03-01T22:17:03.089Z,14.20
2023-03-01T22:19:31.346Z,22.30
2023-03-01T22:21:59.286Z,15.60
2023-03-01T22:24:27.310Z,13.40
2023-03-01T22:26:55.515Z,16.10
2023-03-01T22:29:27.053Z,14.20
2023-03-01T22:31:56.470Z,15.30
2023-03-01T22:34:24.880Z,12.30
2023-03-01T22:36:53.163Z,14.30
2023-03-01T22:39:21.515Z,11.20
2023-03-01T22:41:50.275Z,12.50
2023-03-01T22:44:20.844Z,12.90
2023-03-01T22:46:49.570Z,9.70
2023-03-01T22:49:18.858Z,14.70
2023-03-01T22:51:47.708Z,10.10
2023-03-01T22:54:18.012Z,10.90
2023-03-01T22:56:46.711Z,10.00
2023-03-01T22:59:19.096Z,12.20
2023-03-01T23:01:48.158Z,10.40
2023-03-01T23:04:17.764Z,13.90
2023-03-01T23:06:55.775Z,11.60
2023-03-01T23:09:33.990Z,11.40
2023-03-01T23:12:06.770Z,20.50
2023-03-01T23:14:35.745Z,13.70
2023-03-01T23:17:05.404Z,23.80
2023-03-01T23:19:33.501Z,29.40
2023-03-01T23:22:01.454Z,39.20
2023-03-01T23:24:32.078Z,30.30
2023-03-01T23:27:02.111Z,31.40
2023-03-01T23:29:31.589Z,37.30
2023-03-01T23:32:00.191Z,32.30
2023-03-01T23:34:28.445Z,31.10
2023-03-01T23:36:58.085Z,27.80
2023-03-01T23:39:27.521Z,23.90
2023-03-01T23:41:56.899Z,34.70
2023-03-01T23:44:25.013Z,28.90
2023-03-01T23:46:53.120Z,22.70
2023-03-01T23:49:23.390Z,21.90
2023-03-01T23:51:51.769Z,13.00
2023-03-01T23:54:22.370Z,14.00
2023-03-01T23:56:50.495Z,10.40
2023-03-01T23:59:22.014Z,11.40
